Leukimmi — SY3734 — position and weather

sailwx.info

Track history (hours):
 
Tides and Currents Weather Stations Pressure Air Temp Water Temp Dewpoint Dewpoint Depression Visibility Wind Speed Wind Dir Waves Ship Positions

Leukimmi

Last reported at 2015-Jun-08 10:08 UTC. Time now 2015-Jul-30 06:12 UTC.
Position N 39°29' E 020°11'.
Warning: this ship's position is 51 days out of date.

Length 65 m; draft 2.6 m.

Type: Passenger vessel. MMSI: 237671800.

Date/timePositionNaut miles runAvg speedWind from/ knotsBaromVisibWave heightAir tempDewpointWater temp
2015-Jun-08 10:08N 39°29' E 020°11'5 9.5
2015-Jun-08 09:33N 39°25' E 020°06'7 0.2
2015-Jun-07 06:07N 39°29' E 020°12'3 4.1
2015-Jun-07 05:22N 39°30' E 020°16'7 9.1
2015-Jun-07 04:33N 39°26' E 020°08'  
2015-Jun-04 15:06N 39°28' E 020°10'5 9.3
2015-Jun-04 14:33N 39°30' E 020°16'5 4.6
2015-Jun-04 13:33N 39°28' E 020°10'5 4.8
2015-Jun-04 12:33N 39°25' E 020°06'5 4.7
2015-Jun-04 11:33N 39°28' E 020°10'5 4.8
2015-Jun-04 10:33N 39°30' E 020°16'9 9.0
2015-Jun-04 09:33N 39°25' E 020°06'  
2015-Jun-01 09:08N 39°25' E 020°06'5 9.0
2015-Jun-01 08:34N 39°29' E 020°10'4 4.0
2015-Jun-01 07:30N 39°30' E 020°16'9 9.5
2015-Jun-01 06:33N 39°25' E 020°06'5 4.8
2015-Jun-01 05:33N 39°28' E 020°10'3 0.1
2015-May-30 16:34N 39°26' E 020°08'7 5.3
2015-May-30 15:13N 39°30' E 020°16'6 9.8
2015-May-30 14:34N 39°27' E 020°08'0 0.1
2015-May-30 13:33N 39°27' E 020°08'7 5.1
2015-May-30 12:16N 39°30' E 020°16'7 9.6
2015-May-30 11:34N 39°26' E 020°08'0 0.3
2015-May-30 10:33N 39°27' E 020°08'7 2.9
2015-May-30 08:13N 39°30' E 020°16'7 9.8
2015-May-30 07:33N 39°27' E 020°08'0 0.5
2015-May-30 06:33N 39°26' E 020°08'7 5.5
2015-May-30 05:17N 39°30' E 020°16'7 9.3
2015-May-30 04:34N 39°27' E 020°08'1 0.1
2015-May-29 18:33N 39°26' E 020°07'8 7.7
2015-May-29 17:33N 39°30' E 020°16'4 4.0
2015-May-29 16:33N 39°28' E 020°11'5 5.2
2015-May-29 15:33N 39°25' E 020°06'9 9.1
2015-May-29 14:33N 39°30' E 020°16'4 4.1
2015-May-29 13:33N 39°28' E 020°11'5 5.1
2015-May-29 12:33N 39°25' E 020°06'4 4.3
2015-May-29 11:33N 39°28' E 020°10'5 4.9
2015-May-29 10:32N 39°30' E 020°16'  
Track history (hours):
 
Tides and Currents Weather Stations Pressure Air Temp Water Temp Dewpoint Dewpoint Depression Visibility Wind Speed Wind Dir Waves Ship Positions

Leukimmi

Last reported at 2015-Jun-08 10:08 UTC. Time now 2015-Jul-30 06:12 UTC.
Position N 39°29' E 020°11'.
Warning: this ship's position is 51 days out of date.

Length 65 m; draft 2.6 m.

Type: Passenger vessel. MMSI: 237671800.

Date/timePositionNaut miles runAvg speedWind from/ knotsBaromVisibWave heightAir tempDewpointWater temp
2015-Jun-08 10:08N 39°29' E 020°11'5 9.5
2015-Jun-08 09:33N 39°25' E 020°06'7 0.2
2015-Jun-07 06:07N 39°29' E 020°12'3 4.1
2015-Jun-07 05:22N 39°30' E 020°16'7 9.1
2015-Jun-07 04:33N 39°26' E 020°08'  
2015-Jun-04 15:06N 39°28' E 020°10'5 9.3
2015-Jun-04 14:33N 39°30' E 020°16'5 4.6
2015-Jun-04 13:33N 39°28' E 020°10'5 4.8
2015-Jun-04 12:33N 39°25' E 020°06'5 4.7
2015-Jun-04 11:33N 39°28' E 020°10'5 4.8
2015-Jun-04 10:33N 39°30' E 020°16'9 9.0
2015-Jun-04 09:33N 39°25' E 020°06'  
2015-Jun-01 09:08N 39°25' E 020°06'5 9.0
2015-Jun-01 08:34N 39°29' E 020°10'4 4.0
2015-Jun-01 07:30N 39°30' E 020°16'9 9.5
2015-Jun-01 06:33N 39°25' E 020°06'5 4.8
2015-Jun-01 05:33N 39°28' E 020°10'3 0.1
2015-May-30 16:34N 39°26' E 020°08'7 5.3
2015-May-30 15:13N 39°30' E 020°16'6 9.8
2015-May-30 14:34N 39°27' E 020°08'0 0.1
2015-May-30 13:33N 39°27' E 020°08'7 5.1
2015-May-30 12:16N 39°30' E 020°16'7 9.6
2015-May-30 11:34N 39°26' E 020°08'0 0.3
2015-May-30 10:33N 39°27' E 020°08'7 2.9
2015-May-30 08:13N 39°30' E 020°16'7 9.8
2015-May-30 07:33N 39°27' E 020°08'0 0.5
2015-May-30 06:33N 39°26' E 020°08'7 5.5
2015-May-30 05:17N 39°30' E 020°16'7 9.3
2015-May-30 04:34N 39°27' E 020°08'1 0.1
2015-May-29 18:33N 39°26' E 020°07'8 7.7
2015-May-29 17:33N 39°30' E 020°16'4 4.0
2015-May-29 16:33N 39°28' E 020°11'5 5.2
2015-May-29 15:33N 39°25' E 020°06'9 9.1
2015-May-29 14:33N 39°30' E 020°16'4 4.1
2015-May-29 13:33N 39°28' E 020°11'5 5.1
2015-May-29 12:33N 39°25' E 020°06'4 4.3
2015-May-29 11:33N 39°28' E 020°10'5 4.9
2015-May-29 10:32N 39°30' E 020°16'  

Dump ship's entire track history